Killeen, TX

8:37 PM CDT on September 16, 2014 (GMT -0500)
Hood Army Air Field | Change Station
CLOSE
Current Station
Airport
Location: Killeen/Ft Hood,
Elevation: 922 ft
Nearby Weather Stations

Elev 922 ft 31.14 °N, 97.71 °W | Updated 41 minutes ago

Mostly Cloudy
Mostly Cloudy
84 °F
Feels Like 90 °F
N
0
Wind Variable Wind from North

Today
High -- | Low -- °F
--% Chance of Precip.
Yesterday
High -- | Low -- °F
Precip. -- in
7:15 AM 7:35 PM
Last Quarter, 40% visible
Pressure 29.99 in
Visibility 10.0 miles
Clouds Few 11000 ft
Heat Index 90 °F
Dew Point 72 °F
Humidity 67%
Rainfall 0.00 in
Snow Depth Not available.
UV 0 out of 12
Pollen 10.00 out of 12
Ozone Good
PM2.5 Moderate
Flu Activity Not available.
METAR KHLR 170056Z 00000KT 10SM FEW110 29/22 A2999 RMK AO2 SLPNO T02890222 $

More Conditions Fewer Conditions

Pressure 29.99 in
Visibility 10.0 miles
Clouds Few 11000 ft
Heat Index 90 °F
Dew Point 72 °F
Humidity 67%
Rainfall 0.00 in
Snow Depth Not available.
UV 0 out of 12
Pollen 10.00 out of 12
Ozone Good
PM2.5 Moderate
Flu Activity Not available.
METAR KHLR 170056Z 00000KT 10SM FEW110 29/22 A2999 RMK AO2 SLPNO T02890222 $

More Conditions Fewer Conditions

Nowcast | as of 7:24 PM CDT on September 16, 2014

Showers and thunderstorms will linger along a line from Hearne to near Centerville through 9 PM. Brief heavy rain will produce minor street flooding and ponding of water on roadways in these areas. Activity will diminish later in the evening with the loss of surface heating.

×

10-Day Weather Forecast

Almanac

Astronomy

Sep. 16, 2014 Rise Set
Actual Time 7:15 AM CDT 7:35 PM CDT
Civil Twilight 6:51 AM CDT 7:59 PM CDT
Nautical Twilight 6:23 AM CDT 8:27 PM CDT
Astronomical Twilight 5:54 AM CDT 8:56 PM CDT
Moon 12:43 AM CDT (9/16) 2:43 PM CDT (9/16)
Length of Visible Light 13h 07m
Length of Day
12h 19m
Tomorrow will be 1m 52s shorter.
Last Quarter, 40% of the Moon is Illuminated
Today
Last Quarter
Sep 24
New
Oct 1
First Quarter
Oct 8
Full
Oct 15
Last Quarter

Today's Extremes

State Highs State Lows

Community

WunderPhotos

Upload Photos

1,753,943 photos uploaded!

Nearby

Air Quality

  Air Quality AQ Index Pollutant
Yesterday Good
OZONE
Yesterday Good
PM2.5
Current Moderate
PM2.5
Current Good
OZONE
Tuesday Good
PM10
Tuesday Good
OZONE
Wednesday Good
PM10
Wednesday Good
OZONE
Thursday Good
PM10
Thursday Good
OZONE
Friday Good
PM10
Friday Good
OZONE

Snow Depth

Station Depth Elevation
No new snow has been reported.

Earthquake Activity

City Distance Mag. Time & Date
No recent earthquake activity has been reported nearby.
Minimum magnitude displayed is 2.5.

Coastal Water Temperatures

Place Temperature
No Stations Reporting

Nearby Weather Stations